Time;durP1;ratioP1;P1;durP2;ratioP2;P2;SDS_P1;SDS_P2;PMS_P1;PMS_P2;Temp;Humidity;BMP_temperature;BMP_pressure;BME280_temperature;BME280_humidity;BME280_pressure;Samples;Min_cycle;Max_cycle;Signal;HPM_P1;HPM_P2
2023/01/12 00:00:54;;;;;;;;;;;;;;;9.63;51.85;101248.34;4970485;28;19914;-75
2023/01/12 00:03:38;;;;;;;;;;;;;;;9.65;51.92;101250.78;4966713;28;19926;-76
2023/01/12 00:06:23;;;;;;;;;;;;;;;9.57;51.65;101243.28;4950395;28;20393;-76
2023/01/12 00:09:08;;;;;;;;;;;;;;;9.92;50.03;101240.00;4965705;28;20305;-76
2023/01/12 00:11:53;;;;;;;;;;;;;;;9.94;51.19;101231.56;4947567;28;20285;-76
2023/01/12 00:14:37;;;;;;;;;;;;;;;9.68;51.53;101240.13;4963586;28;20385;-76
2023/01/12 00:17:22;;;;;;;;;;;;;;;9.83;51.64;101241.78;4974752;28;19914;-76
2023/01/12 00:20:07;;;;;;;;;;;;;;;9.70;52.58;101245.28;4953140;28;20381;-76
2023/01/12 00:22:51;;;;;;;;;;;;;;;9.73;52.36;101240.03;4944158;28;19918;-76
2023/01/12 00:25:36;;;;;;;;;;;;;;;9.66;53.25;101241.50;4962386;28;19929;-76
2023/01/12 00:28:20;;;;;;;;;;;;;;;9.68;53.05;101242.03;4949904;28;19914;-76
2023/01/12 00:31:06;;;;;;;;;;;;;;;9.85;53.35;101239.59;4959297;28;19914;-75
2023/01/12 00:33:51;;;;;;;;;;;;;;;9.81;53.05;101242.06;4951182;28;19945;-78
2023/01/12 00:36:35;;;;;;;;;;;;;;;9.89;53.02;101240.59;4952275;28;19915;-77
2023/01/12 00:39:20;;;;;;;;;;;;;;;9.89;53.16;101232.47;4949236;28;19918;-77
2023/01/12 00:45:21;;;;;;;;;;;;;;;9.81;54.46;101255.66;4964439;28;19914;-77
2023/01/12 00:48:09;;;;;;;;;;;;;;;9.88;54.34;101256.09;4950488;28;19914;-77
2023/01/12 00:50:54;;;;;;;;;;;;;;;9.75;55.75;101256.84;4969991;28;19915;-78
2023/01/12 00:53:38;;;;;;;;;;;;;;;9.71;55.06;101260.44;4963080;28;19922;-78
2023/01/12 00:56:23;;;;;;;;;;;;;;;10.05;52.53;101260.97;4957277;28;20358;-78
2023/01/12 00:59:07;;;;;;;;;;;;;;;9.99;52.25;101261.34;4962176;28;19914;-77
2023/01/12 01:01:51;;;;;;;;;;;;;;;9.94;52.43;101258.72;4964753;28;19914;-78
2023/01/12 01:04:36;;;;;;;;;;;;;;;9.87;52.46;101248.22;4957746;28;19919;-78
2023/01/12 01:07:20;;;;;;;;;;;;;;;9.88;53.61;101252.56;4964209;28;20312;-77
2023/01/12 01:10:05;;;;;;;;;;;;;;;10.01;53.64;101242.81;4969740;28;19915;-78
2023/01/12 01:12:50;;;;;;;;;;;;;;;9.79;53.87;101233.44;4962817;28;19918;-77
2023/01/12 01:15:35;;;;;;;;;;;;;;;10.03;51.64;101227.03;4944590;28;20374;-78
2023/01/12 01:18:20;;;;;;;;;;;;;;;9.96;51.42;101229.34;4967628;28;20313;-78
2023/01/12 01:21:06;;;;;;;;;;;;;;;9.85;51.64;101236.88;4957052;28;19914;-78
2023/01/12 01:23:51;;;;;;;;;;;;;;;9.86;51.85;101236.56;4954219;28;20374;-78
2023/01/12 01:26:36;;;;;;;;;;;;;;;9.93;52.22;101236.19;4967873;28;20389;-77
2023/01/12 01:29:20;;;;;;;;;;;;;;;9.87;52.80;101238.19;4953037;28;20299;-77
2023/01/12 01:32:05;;;;;;;;;;;;;;;9.94;53.02;101248.66;4969020;28;19918;-77
2023/01/12 01:34:49;;;;;;;;;;;;;;;9.96;53.98;101259.22;4957553;28;19918;-76
2023/01/12 01:37:33;;;;;;;;;;;;;;;10.03;53.80;101265.09;4944360;28;19923;-77
2023/01/12 01:40:18;;;;;;;;;;;;;;;10.10;53.63;101263.59;4958127;28;19914;-77
2023/01/12 01:43:02;;;;;;;;;;;;;;;10.06;53.84;101273.44;4953961;28;20293;-77
2023/01/12 01:45:54;;;;;;;;;;;;;;;10.03;53.67;101276.75;4968680;28;19914;-77
2023/01/12 01:48:39;;;;;;;;;;;;;;;10.06;54.56;101267.19;4956291;28;19918;-78
2023/01/12 01:51:24;;;;;;;;;;;;;;;10.04;52.29;101261.28;4972350;28;19914;-78
2023/01/12 01:54:08;;;;;;;;;;;;;;;9.81;51.13;101252.13;4955997;28;19918;-77
2023/01/12 01:56:55;;;;;;;;;;;;;;;9.77;51.64;101259.25;4953481;28;19914;-77
2023/01/12 01:59:43;;;;;;;;;;;;;;;9.70;52.69;101259.63;4965429;28;19915;-77
2023/01/12 02:02:28;;;;;;;;;;;;;;;9.61;51.32;101255.16;4962759;28;19913;-77
2023/01/12 02:05:15;;;;;;;;;;;;;;;9.57;52.65;101265.00;4970598;28;19914;-78
2023/01/12 02:08:07;;;;;;;;;;;;;;;9.64;51.21;101262.75;4965757;28;20344;-78
2023/01/12 02:10:52;;;;;;;;;;;;;;;9.52;51.33;101248.81;4964646;28;19918;-77
2023/01/12 02:16:57;;;;;;;;;;;;;;;9.29;50.87;101248.59;4972305;28;19913;-77
2023/01/12 02:19:54;;;;;;;;;;;;;;;9.20;50.98;101250.34;4946439;29;19915;-77
2023/01/12 02:22:45;;;;;;;;;;;;;;;9.38;50.16;101262.31;4937715;29;19919;-77
2023/01/12 02:25:44;;;;;;;;;;;;;;;9.53;49.25;101245.00;4937892;29;19918;-78
2023/01/12 02:28:47;;;;;;;;;;;;;;;9.23;50.42;101247.06;4937917;29;19914;-77
2023/01/12 02:31:37;;;;;;;;;;;;;;;9.24;51.96;101256.00;4953041;29;19914;-78
2023/01/12 02:34:28;;;;;;;;;;;;;;;9.35;49.93;101244.69;4956582;28;19914;-78
2023/01/12 02:37:26;;;;;;;;;;;;;;;9.18;50.04;101239.00;4956829;28;19914;-78
2023/01/12 02:40:10;;;;;;;;;;;;;;;9.42;49.44;101237.00;4956581;29;19914;-77
2023/01/12 02:43:00;;;;;;;;;;;;;;;9.66;48.41;101225.22;4960783;28;19923;-77
2023/01/12 02:46:13;;;;;;;;;;;;;;;9.42;48.96;101231.56;4958907;28;19914;-78
2023/01/12 02:49:08;;;;;;;;;;;;;;;9.15;52.25;101246.88;4968295;28;19914;-77
2023/01/12 02:52:06;;;;;;;;;;;;;;;9.13;53.93;101243.69;4945095;29;20298;-78
2023/01/12 02:54:52;;;;;;;;;;;;;;;8.93;50.19;101233.91;4969814;28;20397;-77
2023/01/12 02:57:37;;;;;;;;;;;;;;;8.96;49.38;101239.53;4966198;28;19915;-77
2023/01/12 03:00:22;;;;;;;;;;;;;;;8.91;48.91;101230.66;4957807;28;19914;-78
2023/01/12 03:03:07;;;;;;;;;;;;;;;9.20;48.38;101223.19;4953359;29;20298;-77
2023/01/12 03:05:57;;;;;;;;;;;;;;;9.30;47.43;101224.97;4947776;29;19914;-78
2023/01/12 03:08:42;;;;;;;;;;;;;;;9.04;49.07;101240.78;4949878;28;20298;-77
2023/01/12 03:11:26;;;;;;;;;;;;;;;9.04;48.51;101240.78;4955177;28;19915;-77
2023/01/12 03:14:12;;;;;;;;;;;;;;;9.21;48.34;101241.09;4954874;29;19914;-78
2023/01/12 03:16:57;;;;;;;;;;;;;;;8.98;48.34;101237.38;4956110;28;19914;-76
2023/01/12 03:19:43;;;;;;;;;;;;;;;9.17;49.95;101239.28;4955077;29;19914;-77
2023/01/12 03:22:29;;;;;;;;;;;;;;;9.28;49.50;101232.59;4945241;28;19915;-77
2023/01/12 03:25:16;;;;;;;;;;;;;;;9.10;49.53;101241.53;4952160;28;19914;-77
2023/01/12 03:28:03;;;;;;;;;;;;;;;8.99;49.07;101243.56;4944629;29;19915;-77
2023/01/12 03:30:54;;;;;;;;;;;;;;;8.84;49.83;101244.56;4953900;29;19914;-77
2023/01/12 03:33:40;;;;;;;;;;;;;;;8.77;51.22;101252.28;4954241;29;19923;-78
2023/01/12 03:36:33;;;;;;;;;;;;;;;8.61;51.29;101252.72;4952911;28;19914;-78
2023/01/12 03:39:27;;;;;;;;;;;;;;;8.57;51.15;101247.91;4955581;29;19914;-76
2023/01/12 03:42:31;;;;;;;;;;;;;;;8.80;50.27;101231.88;4953509;29;19914;-77
2023/01/12 03:45:34;;;;;;;;;;;;;;;8.95;49.15;101224.38;4946254;29;19919;-78
2023/01/12 03:48:29;;;;;;;;;;;;;;;8.96;48.79;101230.59;4952102;29;20551;-77
2023/01/12 03:51:18;;;;;;;;;;;;;;;8.93;48.61;101228.47;4961514;28;19914;-77
2023/01/12 03:54:04;;;;;;;;;;;;;;;8.88;47.98;101231.25;4953890;29;19914;-77
2023/01/12 03:56:51;;;;;;;;;;;;;;;8.88;47.58;101228.56;4949029;29;19914;-78
2023/01/12 03:59:35;;;;;;;;;;;;;;;8.50;50.12;101233.88;4954859;28;20305;-77
2023/01/12 04:02:20;;;;;;;;;;;;;;;8.71;48.66;101225.50;4958517;28;19918;-77
2023/01/12 04:05:07;;;;;;;;;;;;;;;8.44;49.54;101221.47;4969641;28;19918;-77
2023/01/12 04:07:51;;;;;;;;;;;;;;;8.30;50.24;101212.41;4955026;29;19915;-77
2023/01/12 04:10:35;;;;;;;;;;;;;;;8.21;51.13;101229.56;4953874;29;19915;-77
2023/01/12 04:13:20;;;;;;;;;;;;;;;8.63;50.16;101234.28;4954128;29;20313;-78
2023/01/12 04:16:04;;;;;;;;;;;;;;;8.67;49.25;101235.31;4945092;28;19914;-77
2023/01/12 04:18:49;;;;;;;;;;;;;;;9.03;48.42;101247.34;4950721;29;19914;-77
2023/01/12 04:24:37;;;;;;;;;;;;;;;8.80;48.65;101270.66;4952453;28;20382;-77
2023/01/12 04:27:21;;;;;;;;;;;;;;;8.72;49.01;101265.09;4967191;28;19914;-77
2023/01/12 04:30:06;;;;;;;;;;;;;;;8.75;49.08;101276.16;4954568;29;19915;-77
2023/01/12 04:32:51;;;;;;;;;;;;;;;8.72;48.60;101281.34;4942034;29;19918;-77
2023/01/12 04:35:35;;;;;;;;;;;;;;;8.76;48.19;101288.63;4951913;28;19914;-77
2023/01/12 04:38:20;;;;;;;;;;;;;;;8.55;48.35;101293.44;4944873;29;20058;-77
2023/01/12 04:41:06;;;;;;;;;;;;;;;8.41;49.40;101291.72;4968549;28;19914;-77
2023/01/12 04:43:50;;;;;;;;;;;;;;;8.23;50.27;101306.72;4953499;29;19922;-77
2023/01/12 04:46:35;;;;;;;;;;;;;;;8.22;50.88;101315.16;4954316;28;19922;-77
2023/01/12 04:49:19;;;;;;;;;;;;;;;8.30;49.42;101317.28;4952358;28;20290;-77
2023/01/12 04:52:03;;;;;;;;;;;;;;;8.43;49.65;101333.69;4953337;28;19919;-77
2023/01/12 04:54:48;;;;;;;;;;;;;;;8.61;49.37;101334.88;4950698;28;20382;-77
2023/01/12 04:57:32;;;;;;;;;;;;;;;8.56;48.70;101337.63;4963040;28;20314;-77
2023/01/12 05:00:17;;;;;;;;;;;;;;;8.57;49.23;101329.22;4948023;29;19914;-77
2023/01/12 05:03:02;;;;;;;;;;;;;;;8.50;49.20;101325.22;4948237;29;19914;-77
2023/01/12 05:05:46;;;;;;;;;;;;;;;8.42;49.63;101321.25;4967912;28;20301;-78
2023/01/12 05:11:34;;;;;;;;;;;;;;;8.05;50.33;101300.13;4969544;28;19914;-78
2023/01/12 05:14:19;;;;;;;;;;;;;;;8.20;51.01;101288.34;4948342;29;20305;-77
2023/01/12 05:17:03;;;;;;;;;;;;;;;8.51;49.30;101292.41;4950277;28;19914;-77
2023/01/12 05:19:48;;;;;;;;;;;;;;;8.57;48.48;101291.28;4946689;29;19914;-77
2023/01/12 05:22:32;;;;;;;;;;;;;;;8.51;49.46;101297.84;4964985;28;19915;-77
2023/01/12 05:25:17;;;;;;;;;;;;;;;8.43;50.45;101313.94;4951815;28;19933;-78
2023/01/12 05:28:02;;;;;;;;;;;;;;;8.53;50.15;101322.72;4942730;29;19914;-77
2023/01/12 05:30:46;;;;;;;;;;;;;;;8.42;50.31;101320.44;4954760;29;19914;-77
2023/01/12 05:33:30;;;;;;;;;;;;;;;8.27;51.17;101318.63;4952086;29;19918;-78
2023/01/12 05:36:15;;;;;;;;;;;;;;;8.35;50.76;101309.91;4953418;28;20297;-78
2023/01/12 05:39:00;;;;;;;;;;;;;;;8.35;51.08;101312.63;4950379;29;19921;-78
2023/01/12 05:44:47;;;;;;;;;;;;;;;8.08;53.19;101313.09;4972297;28;20305;-77
2023/01/12 05:47:32;;;;;;;;;;;;;;;7.97;54.78;101314.28;4948511;28;20313;-77
2023/01/12 05:50:17;;;;;;;;;;;;;;;8.09;52.14;101316.63;4946434;29;19914;-77
2023/01/12 05:53:21;;;;;;;;;;;;;;;7.93;52.76;101321.34;4956764;28;19918;-77
2023/01/12 05:56:07;;;;;;;;;;;;;;;7.97;53.33;101325.13;4965561;28;19922;-77
2023/01/12 05:58:54;;;;;;;;;;;;;;;7.80;53.22;101348.25;4948284;29;20386;-77
2023/01/12 06:01:40;;;;;;;;;;;;;;;7.80;51.81;101359.09;4956167;29;19918;-76
2023/01/12 06:04:24;;;;;;;;;;;;;;;7.55;53.21;101358.16;4970125;28;19919;-76
2023/01/12 06:07:11;;;;;;;;;;;;;;;7.85;52.00;101353.63;4949270;28;20751;-75
2023/01/12 06:09:55;;;;;;;;;;;;;;;7.84;51.24;101349.31;4973158;28;19914;-76
2023/01/12 06:15:44;;;;;;;;;;;;;;;6.05;56.90;101369.03;4980335;28;19922;-79
2023/01/12 06:18:31;;;;;;;;;;;;;;;6.23;56.51;101378.50;4976911;28;19910;-79
2023/01/12 06:21:16;;;;;;;;;;;;;;;5.18;59.26;101381.44;4950679;28;19922;-76
2023/01/12 06:24:03;;;;;;;;;;;;;;;4.79;61.16;101373.97;4947783;28;19922;-76
2023/01/12 06:26:47;;;;;;;;;;;;;;;4.69;61.11;101374.72;4948606;28;19915;-76
2023/01/12 06:29:32;;;;;;;;;;;;;;;4.82;61.69;101376.16;4968881;28;19914;-76
2023/01/12 06:32:16;;;;;;;;;;;;;;;5.23;61.64;101377.97;4975382;28;19914;-77
2023/01/12 06:35:02;;;;;;;;;;;;;;;4.86;62.08;101369.16;4960180;28;20306;-77
2023/01/12 06:37:46;;;;;;;;;;;;;;;5.20;60.87;101383.06;4955930;29;19915;-77
2023/01/12 06:40:30;;;;;;;;;;;;;;;5.29;59.80;101390.38;4965184;28;19915;-77
2023/01/12 06:43:15;;;;;;;;;;;;;;;5.58;59.73;101396.19;4952015;28;19914;-77
2023/01/12 06:45:59;;;;;;;;;;;;;;;5.37;59.76;101397.19;4954403;28;19915;-77
2023/01/12 06:48:44;;;;;;;;;;;;;;;5.42;59.02;101391.81;4954708;29;20386;-77
2023/01/12 06:51:28;;;;;;;;;;;;;;;5.23;59.57;101394.16;4966385;28;19918;-76
2023/01/12 06:54:13;;;;;;;;;;;;;;;5.28;59.65;101401.47;4952389;28;19914;-78
2023/01/12 06:56:57;;;;;;;;;;;;;;;5.28;59.96;101413.06;4947374;29;20374;-77
2023/01/12 06:59:42;;;;;;;;;;;;;;;5.48;58.72;101423.13;4947878;29;19915;-77
2023/01/12 07:02:26;;;;;;;;;;;;;;;5.31;59.20;101423.31;4953039;29;19914;-76
2023/01/12 07:05:11;;;;;;;;;;;;;;;5.60;59.63;101427.19;4959233;28;19922;-77
2023/01/12 07:07:57;;;;;;;;;;;;;;;5.76;59.15;101417.28;4951718;28;19933;-77
2023/01/12 07:10:42;;;;;;;;;;;;;;;6.17;57.07;101409.28;4954993;29;19915;-77
2023/01/12 07:13:26;;;;;;;;;;;;;;;6.37;57.02;101410.09;4966527;28;19914;-77
2023/01/12 07:16:11;;;;;;;;;;;;;;;6.68;56.47;101402.78;4951827;28;19918;-76
2023/01/12 07:18:57;;;;;;;;;;;;;;;6.70;56.32;101407.94;4947413;28;19926;-76
2023/01/12 07:21:43;;;;;;;;;;;;;;;6.80;55.91;101408.72;4957115;28;19915;-76
2023/01/12 07:24:27;;;;;;;;;;;;;;;6.91;55.34;101416.81;4963760;28;19918;-76
2023/01/12 07:27:11;;;;;;;;;;;;;;;6.93;55.64;101418.16;4953185;28;19915;-75
2023/01/12 07:29:56;;;;;;;;;;;;;;;6.54;57.25;101412.53;4960725;28;19915;-76
2023/01/12 07:32:40;;;;;;;;;;;;;;;6.33;57.35;101421.72;4960187;28;19919;-75
2023/01/12 07:35:25;;;;;;;;;;;;;;;6.45;57.88;101417.66;4962584;28;19918;-75
2023/01/12 07:38:10;;;;;;;;;;;;;;;6.59;58.05;101423.34;4964618;28;19914;-76
2023/01/12 07:40:56;;;;;;;;;;;;;;;6.93;56.57;101423.56;4960130;28;19914;-76
2023/01/12 07:43:41;;;;;;;;;;;;;;;7.24;57.04;101429.72;4959387;28;19922;-75
2023/01/12 07:46:25;;;;;;;;;;;;;;;7.41;56.78;101423.97;4961227;28;19914;-75
2023/01/12 07:49:09;;;;;;;;;;;;;;;7.27;56.23;101419.13;4953728;29;19918;-76
2023/01/12 07:51:55;;;;;;;;;;;;;;;7.30;57.75;101417.78;4941065;29;20397;-76
2023/01/12 07:54:40;;;;;;;;;;;;;;;7.63;56.90;101422.50;4955105;28;20429;-76
2023/01/12 07:57:24;;;;;;;;;;;;;;;7.52;56.61;101431.75;4953453;28;19914;-76
2023/01/12 08:00:11;;;;;;;;;;;;;;;7.61;57.14;101435.53;4956888;28;19914;-76
2023/01/12 08:03:05;;;;;;;;;;;;;;;7.22;58.84;101442.69;4955416;29;19914;-76
2023/01/12 08:05:50;;;;;;;;;;;;;;;6.98;60.19;101460.59;4947700;28;20417;-76
2023/01/12 08:08:34;;;;;;;;;;;;;;;7.03;59.51;101468.69;4951117;29;20298;-76
2023/01/12 08:11:19;;;;;;;;;;;;;;;6.38;60.51;101470.34;4951631;29;19914;-77
2023/01/12 08:14:04;;;;;;;;;;;;;;;5.97;62.54;101456.75;4954026;29;19915;-76
2023/01/12 08:16:49;;;;;;;;;;;;;;;6.41;61.95;101470.59;4952517;28;19940;-76
2023/01/12 08:19:37;;;;;;;;;;;;;;;6.44;62.58;101475.50;4953586;29;19914;-76
2023/01/12 08:22:24;;;;;;;;;;;;;;;6.50;62.77;101473.59;4953661;29;19919;-75
2023/01/12 08:25:11;;;;;;;;;;;;;;;6.28;63.67;101479.25;4954769;29;19926;-75
2023/01/12 08:27:59;;;;;;;;;;;;;;;5.82;65.01;101472.88;4946080;29;19914;-75
2023/01/12 08:30:47;;;;;;;;;;;;;;;6.22;64.78;101493.81;4946620;29;19914;-77
2023/01/12 08:33:32;;;;;;;;;;;;;;;7.03;61.56;101495.72;4951896;29;19914;-75
2023/01/12 08:36:16;;;;;;;;;;;;;;;6.95;61.76;101497.09;4961470;28;19914;-75
2023/01/12 08:39:03;;;;;;;;;;;;;;;7.04;61.86;101505.47;4945838;29;19918;-76
2023/01/12 08:41:47;;;;;;;;;;;;;;;6.56;62.14;101502.22;4954234;29;20306;-76
2023/01/12 08:44:34;;;;;;;;;;;;;;;6.28;64.21;101510.84;4946335;29;20310;-76
2023/01/12 08:47:20;;;;;;;;;;;;;;;6.55;63.41;101526.81;4946661;28;19914;-76
2023/01/12 08:50:06;;;;;;;;;;;;;;;6.85;64.28;101533.06;4947621;28;19922;-75
2023/01/12 08:52:50;;;;;;;;;;;;;;;7.16;63.18;101531.13;4945803;28;19919;-76
2023/01/12 08:55:35;;;;;;;;;;;;;;;6.91;62.73;101533.06;4945506;28;19914;-76
2023/01/12 08:58:19;;;;;;;;;;;;;;;7.01;62.90;101533.06;4967077;28;19914;-76
2023/01/12 09:01:12;;;;;;;;;;;;;;;6.95;63.92;101540.38;4940507;28;19918;-76
2023/01/12 09:03:57;;;;;;;;;;;;;;;6.76;65.68;101542.78;4960396;28;19918;-75
2023/01/12 09:06:43;;;;;;;;;;;;;;;6.75;66.69;101548.47;4951226;28;20382;-76
2023/01/12 09:09:28;;;;;;;;;;;;;;;6.71;67.06;101553.59;4953688;28;19914;-75
2023/01/12 09:12:12;;;;;;;;;;;;;;;6.54;68.78;101558.44;4959056;28;19914;-76
2023/01/12 09:14:56;;;;;;;;;;;;;;;6.78;68.08;101562.25;4955202;28;19915;-76
2023/01/12 09:17:42;;;;;;;;;;;;;;;7.07;66.28;101567.13;4953739;28;19918;-76
2023/01/12 09:20:26;;;;;;;;;;;;;;;6.55;69.20;101568.19;4951263;28;19915;-75
2023/01/12 09:23:10;;;;;;;;;;;;;;;6.83;68.65;101569.56;4956843;28;20309;-75
2023/01/12 09:25:55;;;;;;;;;;;;;;;7.36;67.60;101570.91;4948050;28;20298;-75
2023/01/12 09:28:40;;;;;;;;;;;;;;;7.85;65.05;101568.34;4957372;28;19915;-76
2023/01/12 09:31:25;;;;;;;;;;;;;;;7.40;67.01;101571.97;4965071;28;19914;-77
2023/01/12 09:34:09;;;;;;;;;;;;;;;7.73;65.88;101584.88;4963539;28;19914;-77
2023/01/12 09:36:55;;;;;;;;;;;;;;;8.09;64.70;101587.47;4960374;28;19914;-77
2023/01/12 09:39:40;;;;;;;;;;;;;;;8.47;63.27;101578.66;4955868;28;19915;-77
2023/01/12 09:48:31;;;;;;;;;;;;;;;9.71;58.50;101584.41;4965856;28;19914;-76
2023/01/12 09:51:23;;;;;;;;;;;;;;;9.68;58.60;101586.91;4954847;28;19914;-77
2023/01/12 09:54:09;;;;;;;;;;;;;;;9.57;59.44;101585.41;4966571;28;19918;-76
2023/01/12 09:57:00;;;;;;;;;;;;;;;9.18;60.15;101583.59;4952248;28;19914;-75
2023/01/12 09:59:50;;;;;;;;;;;;;;;9.34;61.27;101586.97;4973360;28;19914;-75
2023/01/12 10:02:35;;;;;;;;;;;;;;;9.63;61.01;101589.69;4967404;28;19918;-78
2023/01/12 10:05:39;;;;;;;;;;;;;;;9.69;59.24;101580.38;4969260;28;20310;-79
2023/01/12 10:08:29;;;;;;;;;;;;;;;9.60;59.58;101574.75;4962448;28;19913;-78
2023/01/12 10:11:23;;;;;;;;;;;;;;;10.68;60.03;101584.84;4968280;28;19918;-78
2023/01/12 10:14:26;;;;;;;;;;;;;;;11.11;55.90;101582.84;4955487;28;19914;-78
2023/01/12 10:17:11;;;;;;;;;;;;;;;10.71;55.75;101584.28;4957930;28;19914;-77
2023/01/12 10:20:02;;;;;;;;;;;;;;;10.34;56.40;101573.38;4954839;28;20386;-78
2023/01/12 10:22:47;;;;;;;;;;;;;;;10.22;55.99;101579.22;4980256;28;19914;-77
2023/01/12 10:25:47;;;;;;;;;;;;;;;11.00;52.09;101575.94;4986829;28;20297;-77
2023/01/12 10:28:33;;;;;;;;;;;;;;;11.49;52.18;101560.94;4953671;28;19917;-77
2023/01/12 10:31:19;;;;;;;;;;;;;;;11.16;52.65;101552.00;4951820;28;19915;-77
2023/01/12 10:34:09;;;;;;;;;;;;;;;11.04;53.62;101552.47;4952125;28;19914;-77
2023/01/12 10:37:03;;;;;;;;;;;;;;;11.21;53.17;101548.38;4953868;28;19914;-78
2023/01/12 10:39:50;;;;;;;;;;;;;;;11.02;52.89;101553.88;4949803;28;19914;-77
2023/01/12 10:45:40;;;;;;;;;;;;;;;11.44;53.74;101552.84;4974344;28;19917;-77
2023/01/12 10:48:25;;;;;;;;;;;;;;;11.92;51.30;101559.59;4959649;28;19918;-77
2023/01/12 10:51:29;;;;;;;;;;;;;;;11.93;51.33;101561.22;4977262;28;20389;-78
2023/01/12 10:54:16;;;;;;;;;;;;;;;11.78;52.24;101564.25;4938526;28;19915;-78
2023/01/12 10:57:16;;;;;;;;;;;;;;;12.23;50.12;101570.69;4945870;29;19918;-77
2023/01/12 11:00:01;;;;;;;;;;;;;;;11.93;51.67;101576.75;4971317;28;19914;-77
2023/01/12 11:02:46;;;;;;;;;;;;;;;11.82;52.01;101570.69;4975584;28;20306;-77
2023/01/12 11:05:38;;;;;;;;;;;;;;;11.65;52.08;101561.44;4959474;28;19919;-77
2023/01/12 11:08:25;;;;;;;;;;;;;;;11.72;51.86;101551.78;4977605;28;19914;-77
2023/01/12 11:11:15;;;;;;;;;;;;;;;12.04;51.40;101544.66;4975578;28;19915;-78
2023/01/12 11:14:01;;;;;;;;;;;;;;;12.13;50.94;101537.38;4956019;28;19914;-78
2023/01/12 11:16:48;;;;;;;;;;;;;;;11.99;52.14;101534.63;4967213;28;19913;-78
2023/01/12 11:19:37;;;;;;;;;;;;;;;11.21;54.23;101527.41;4957647;28;19917;-77
2023/01/12 11:22:26;;;;;;;;;;;;;;;11.31;54.36;101540.03;4975409;28;19918;-78
2023/01/12 11:25:19;;;;;;;;;;;;;;;11.55;54.27;101537.94;4966368;28;19919;-78
2023/01/12 11:28:09;;;;;;;;;;;;;;;11.69;54.19;101540.66;4962670;28;19914;-78
2023/01/12 11:31:04;;;;;;;;;;;;;;;11.27;55.23;101530.84;4961669;28;19914;-79
2023/01/12 11:33:53;;;;;;;;;;;;;;;11.72;54.44;101529.19;4959830;28;19914;-78
2023/01/12 11:36:45;;;;;;;;;;;;;;;11.51;55.22;101537.75;4968454;28;19922;-79
2023/01/12 11:39:30;;;;;;;;;;;;;;;11.04;56.26;101538.03;4965860;28;20397;-79
2023/01/12 11:45:27;;;;;;;;;;;;;;;11.34;56.77;101545.69;4965937;28;19918;-79
2023/01/12 11:48:21;;;;;;;;;;;;;;;11.04;57.27;101535.31;4958013;28;19914;-79
2023/01/12 11:51:07;;;;;;;;;;;;;;;10.80;58.21;101527.28;4962114;28;19914;-79
2023/01/12 11:53:52;;;;;;;;;;;;;;;10.79;58.56;101514.78;4962833;28;19914;-81
2023/01/12 11:56:40;;;;;;;;;;;;;;;10.75;58.63;101502.88;4960082;28;19914;-78
2023/01/12 11:59:45;;;;;;;;;;;;;;;10.81;58.56;101512.59;4972886;28;19918;-79
2023/01/12 12:02:36;;;;;;;;;;;;;;;11.12;58.05;101510.94;4956769;29;19914;-79
2023/01/12 12:05:24;;;;;;;;;;;;;;;11.00;57.99;101507.91;4957611;28;19922;-80
2023/01/12 12:08:08;;;;;;;;;;;;;;;11.00;58.29;101507.91;4977931;28;19915;-80
2023/01/12 12:10:55;;;;;;;;;;;;;;;11.13;58.49;101493.50;4958688;29;19914;-80
2023/01/12 12:13:50;;;;;;;;;;;;;;;11.11;57.85;101490.28;4927633;28;19927;-80
2023/01/12 12:16:41;;;;;;;;;;;;;;;11.29;57.86;101490.50;4961537;28;19914;-80
2023/01/12 12:19:32;;;;;;;;;;;;;;;11.35;58.18;101483.84;4976068;28;19914;-81
2023/01/12 12:22:25;;;;;;;;;;;;;;;11.75;56.97;101488.53;4955175;28;19914;-80
2023/01/12 12:25:13;;;;;;;;;;;;;;;11.89;56.60;101478.41;4966617;28;20398;-80
2023/01/12 12:28:17;;;;;;;;;;;;;;;11.89;56.40;101478.41;4963963;28;19914;-80
2023/01/12 12:31:10;;;;;;;;;;;;;;;11.93;56.70;101474.00;4961470;28;19914;-80
2023/01/12 12:34:00;;;;;;;;;;;;;;;12.40;56.39;101463.63;4970111;28;19913;-80
2023/01/12 12:36:50;;;;;;;;;;;;;;;12.73;56.23;101470.50;4958344;28;19918;-80
2023/01/12 12:39:53;;;;;;;;;;;;;;;12.69;56.92;101468.69;4991868;28;19914;-84
2023/01/12 12:45:47;;;;;;;;;;;;;;;13.19;54.63;101464.69;4966617;28;19918;-80
2023/01/12 12:48:40;;;;;;;;;;;;;;;13.57;52.65;101456.78;4996004;28;19921;-81
2023/01/12 12:51:27;;;;;;;;;;;;;;;13.55;53.18;101447.31;4975251;28;20302;-80
2023/01/12 12:54:16;;;;;;;;;;;;;;;13.28;53.93;101446.41;4976119;28;19914;-80
2023/01/12 12:57:02;;;;;;;;;;;;;;;13.02;53.91;101444.63;4990224;28;19914;-80
2023/01/12 12:59:52;;;;;;;;;;;;;;;12.74;51.10;101442.09;4983958;28;19915;-80
2023/01/12 13:02:52;;;;;;;;;;;;;;;12.66;49.50;101431.91;4968124;28;19914;-81
2023/01/12 13:05:41;;;;;;;;;;;;;;;12.79;48.74;101420.13;4978094;28;19918;-80
2023/01/12 13:08:26;;;;;;;;;;;;;;;13.47;49.28;101424.28;4967500;28;19914;-81
2023/01/12 13:11:10;;;;;;;;;;;;;;;14.59;44.48;101432.59;4970649;28;20386;-81
2023/01/12 13:13:57;;;;;;;;;;;;;;;15.22;43.11;101429.03;4978294;28;19914;-81
2023/01/12 13:16:50;;;;;;;;;;;;;;;16.09;42.49;101419.19;4962798;28;19918;-80
2023/01/12 13:19:36;;;;;;;;;;;;;;;16.46;41.55;101419.34;4975279;28;20374;-80
2023/01/12 13:22:27;;;;;;;;;;;;;;;17.44;39.35;101410.16;4983828;28;19918;-82
2023/01/12 13:25:14;;;;;;;;;;;;;;;17.74;38.56;101405.22;4980492;28;19922;-82
2023/01/12 13:27:59;;;;;;;;;;;;;;;14.97;42.41;101405.28;4961915;28;19914;-81
2023/01/12 13:30:48;;;;;;;;;;;;;;;16.46;41.35;101400.13;4965972;28;19915;-81
2023/01/12 13:33:34;;;;;;;;;;;;;;;16.30;39.55;101396.41;4964775;28;19914;-81
2023/01/12 13:36:28;;;;;;;;;;;;;;;14.81;42.38;101394.06;4964337;28;19914;-81
2023/01/12 13:39:15;;;;;;;;;;;;;;;14.54;44.21;101391.69;4983090;28;20313;-81
2023/01/12 13:45:08;;;;;;;;;;;;;;;13.90;43.85;101385.28;4959431;28;20301;-80
2023/01/12 13:47:53;;;;;;;;;;;;;;;13.59;46.22;101394.41;4986799;28;19940;-80
2023/01/12 13:50:45;;;;;;;;;;;;;;;13.31;46.48;101393.03;4954086;28;20294;-81
2023/01/12 13:53:30;;;;;;;;;;;;;;;13.00;47.68;101397.75;4968034;28;19914;-80
2023/01/12 13:56:19;;;;;;;;;;;;;;;12.76;48.27;101387.97;4977740;28;19916;-81
2023/01/12 13:59:05;;;;;;;;;;;;;;;12.78;48.83;101374.84;4979913;28;20293;-80
2023/01/12 14:01:50;;;;;;;;;;;;;;;12.88;48.50;101373.75;4968896;28;19922;-80
2023/01/12 14:04:45;;;;;;;;;;;;;;;12.57;47.88;101379.22;4954521;28;20397;-81
2023/01/12 14:07:35;;;;;;;;;;;;;;;12.48;49.89;101374.81;4971426;28;19914;-80
2023/01/12 14:10:20;;;;;;;;;;;;;;;12.65;49.42;101374.91;4980362;28;19919;-81
2023/01/12 14:13:10;;;;;;;;;;;;;;;12.51;49.73;101369.53;4968615;28;20301;-80
2023/01/12 14:19:17;;;;;;;;;;;;;;;12.53;49.88;101372.78;4985631;28;19914;-81
2023/01/12 14:22:03;;;;;;;;;;;;;;;12.78;49.08;101376.75;4954068;28;20393;-81
2023/01/12 14:24:48;;;;;;;;;;;;;;;12.26;50.43;101368.25;4968844;28;20301;-80
2023/01/12 14:27:33;;;;;;;;;;;;;;;12.18;51.31;101376.38;4973864;28;19914;-80
2023/01/12 14:30:18;;;;;;;;;;;;;;;12.43;51.02;101373.84;4979544;28;19914;-81
2023/01/12 14:33:02;;;;;;;;;;;;;;;13.04;48.97;101382.34;4959411;28;19914;-80
2023/01/12 14:35:47;;;;;;;;;;;;;;;13.51;47.58;101384.25;4975203;28;19914;-80
2023/01/12 14:38:35;;;;;;;;;;;;;;;13.52;47.44;101376.88;4979672;28;19914;-80
2023/01/12 14:47:33;;;;;;;;;;;;;;;14.65;44.95;101381.22;4982426;28;20360;-81
2023/01/12 14:50:19;;;;;;;;;;;;;;;14.74;44.75;101374.59;4976924;28;19914;-80
2023/01/12 14:53:23;;;;;;;;;;;;;;;14.14;46.54;101371.94;4966615;28;19914;-81
2023/01/12 14:56:13;;;;;;;;;;;;;;;13.55;47.30;101360.66;4961388;28;19914;-81
2023/01/12 14:59:06;;;;;;;;;;;;;;;13.16;48.31;101369.72;4978582;28;20631;-80
2023/01/12 15:01:51;;;;;;;;;;;;;;;12.96;49.24;101364.78;4982103;28;19933;-81
2023/01/12 15:04:36;;;;;;;;;;;;;;;12.90;49.54;101363.31;4966679;28;19914;-81
2023/01/12 15:07:21;;;;;;;;;;;;;;;12.44;49.95;101369.19;4984631;28;19914;-82
2023/01/12 15:10:08;;;;;;;;;;;;;;;12.26;51.01;101370.97;4969732;28;19914;-80
2023/01/12 15:12:54;;;;;;;;;;;;;;;12.11;51.64;101371.34;4983514;28;19914;-80